Time;durP1;ratioP1;P1;durP2;ratioP2;P2;SDS_P1;SDS_P2;PMS_P1;PMS_P2;Temp;Humidity;BMP_temperature;BMP_pressure;BME280_temperature;BME280_humidity;BME280_pressure;Samples;Min_cycle;Max_cycle;Signal;HPM_P1;HPM_P2
2022/11/15 03:10:02;;;;;;;1999.90;999.90;;;;;;;;;;5957719;22;20293;-75
2022/11/15 03:12:52;;;;;;;1999.90;999.90;;;;;;;;;;5011563;28;20207;-74
2022/11/15 03:15:38;;;;;;;1999.90;999.90;;;;;;;;;;5015526;28;20210;-74
2022/11/15 03:18:28;;;;;;;1999.90;999.90;;;;;;;;;;5014553;28;20392;-74
2022/11/15 03:21:14;;;;;;;1999.90;999.90;;;;;;;;;;5015481;28;20225;-72
2022/11/15 03:24:02;;;;;;;1999.90;999.90;;;;;;;;;;5017266;28;20311;-74
2022/11/15 03:26:48;;;;;;;1999.90;999.90;;;;;;;;;;5014999;28;20211;-73
2022/11/15 03:29:35;;;;;;;1999.90;999.90;;;;;;;;;;5014878;28;20257;-74
2022/11/15 03:32:22;;;;;;;1999.90;999.90;;;;;;;;;;5016256;28;20696;-73
2022/11/15 03:35:10;;;;;;;1999.90;999.90;;;;;;;;;;5026632;28;20336;-74
2022/11/15 03:37:56;;;;;;;1999.90;999.90;;;;;;;;;;5017756;28;20569;-73
2022/11/15 03:40:42;;;;;;;1999.90;999.90;;;;;;;;;;5014481;28;20234;-72
2022/11/15 03:43:35;;;;;;;1999.90;999.90;;;;;;;;;;5028208;28;20206;-74
2022/11/15 03:46:24;;;;;;;1999.90;999.90;;;;;;;;;;5032341;28;20711;-74
2022/11/15 03:49:11;;;;;;;1999.90;999.90;;;;;;;;;;5026565;28;20214;-74
2022/11/15 03:51:57;;;;;;;1999.90;999.90;;;;;;;;;;5014677;28;20683;-74
2022/11/15 03:54:49;;;;;;;1999.90;999.90;;;;;;;;;;5016493;28;20197;-71
2022/11/15 03:57:35;;;;;;;1999.90;999.90;;;;;;;;;;5019279;28;20269;-71
2022/11/15 04:00:21;;;;;;;1999.90;999.90;;;;;;;;;;5029845;28;20723;-73
2022/11/15 04:03:07;;;;;;;1999.90;999.90;;;;;;;;;;5011714;28;20211;-73
2022/11/15 04:05:52;;;;;;;1999.90;999.90;;;;;;;;;;5013571;28;20350;-74
2022/11/15 04:08:37;;;;;;;1999.90;999.90;;;;;;;;;;5014070;28;20206;-74
2022/11/15 04:11:22;;;;;;;1999.90;999.90;;;;;;;;;;5013886;28;20242;-74
2022/11/15 04:14:07;;;;;;;1999.90;999.90;;;;;;;;;;5013841;28;20250;-73
2022/11/15 04:16:53;;;;;;;1999.90;999.90;;;;;;;;;;5012553;28;20487;-74
2022/11/15 04:25:46;;;;;;;1999.90;999.90;;;;;;;;;;5014016;28;20731;-75
2022/11/15 04:28:31;;;;;;;1999.90;999.90;;;;;;;;;;5031660;28;20288;-74
2022/11/15 04:31:16;;;;;;;1999.90;999.90;;;;;;;;;;5032055;28;20246;-74
2022/11/15 04:34:02;;;;;;;1999.90;999.90;;;;;;;;;;5032538;28;20210;-73
2022/11/15 04:39:50;;;;;;;1999.90;999.90;;;;;;;;;;5032131;28;20277;-73
2022/11/15 04:42:34;;;;;;;1999.90;999.90;;;;;;;;;;5013013;28;20206;-73
2022/11/15 04:45:20;;;;;;;1999.90;999.90;;;;;;;;;;5011981;28;20327;-72
2022/11/15 04:48:05;;;;;;;1999.90;999.90;;;;;;;;;;5013505;28;20206;-74
2022/11/15 04:50:51;;;;;;;1999.90;999.90;;;;;;;;;;5013219;28;20230;-73
2022/11/15 04:53:36;;;;;;;1999.90;999.90;;;;;;;;;;5012992;28;20218;-73
2022/11/15 04:56:21;;;;;;;1999.90;999.90;;;;;;;;;;5013088;28;20325;-74
2022/11/15 04:59:06;;;;;;;1999.90;999.90;;;;;;;;;;5013529;28;20342;-73
2022/11/15 05:01:51;;;;;;;1999.90;999.90;;;;;;;;;;5013332;28;20345;-74
2022/11/15 05:04:35;;;;;;;1999.90;999.90;;;;;;;;;;5011649;28;20225;-74
2022/11/15 05:07:22;;;;;;;1999.90;999.90;;;;;;;;;;5013223;28;20250;-74
2022/11/15 05:10:08;;;;;;;1999.90;999.90;;;;;;;;;;5010768;28;20245;-73
2022/11/15 05:12:53;;;;;;;1999.90;999.90;;;;;;;;;;5012301;28;20326;-73
2022/11/15 05:15:37;;;;;;;1999.90;999.90;;;;;;;;;;5012630;28;20310;-73
2022/11/15 05:18:22;;;;;;;1999.90;999.90;;;;;;;;;;5024216;28;20217;-74
2022/11/15 05:21:07;;;;;;;1999.90;999.90;;;;;;;;;;5030489;28;20294;-73
2022/11/15 05:23:54;;;;;;;1999.90;999.90;;;;;;;;;;5031479;28;20221;-74
2022/11/15 05:26:38;;;;;;;1999.90;999.90;;;;;;;;;;5017288;28;20313;-74
2022/11/15 05:29:23;;;;;;;1999.90;999.90;;;;;;;;;;5012522;28;20214;-74
2022/11/15 05:32:10;;;;;;;1999.90;999.90;;;;;;;;;;5012441;28;20242;-74
2022/11/15 05:34:55;;;;;;;1999.90;999.90;;;;;;;;;;5010833;28;20781;-75
2022/11/15 05:37:41;;;;;;;1999.90;999.90;;;;;;;;;;5012342;28;20315;-73
2022/11/15 05:40:28;;;;;;;1999.90;999.90;;;;;;;;;;5009240;28;20261;-73
2022/11/15 05:43:13;;;;;;;1999.90;999.90;;;;;;;;;;5012412;28;20223;-74
2022/11/15 05:45:59;;;;;;;1999.90;999.90;;;;;;;;;;4998136;28;20883;-71
2022/11/15 05:48:46;;;;;;;1999.90;999.90;;;;;;;;;;5012596;28;20583;-73
2022/11/15 05:51:31;;;;;;;1999.90;999.90;;;;;;;;;;5012037;28;20230;-71
2022/11/15 05:54:16;;;;;;;1999.90;999.90;;;;;;;;;;5011790;28;20396;-71
2022/11/15 05:57:03;;;;;;;1999.90;999.90;;;;;;;;;;5013699;28;20211;-74
2022/11/15 05:59:48;;;;;;;1999.90;999.90;;;;;;;;;;5014742;28;20594;-75
2022/11/15 06:02:33;;;;;;;1999.90;999.90;;;;;;;;;;5012004;28;20215;-74
2022/11/15 06:05:18;;;;;;;1999.90;999.90;;;;;;;;;;5009778;28;20721;-74
2022/11/15 06:08:03;;;;;;;1999.90;999.90;;;;;;;;;;5009225;28;20214;-73
2022/11/15 06:10:47;;;;;;;1999.90;999.90;;;;;;;;;;5003423;28;20242;-74
2022/11/15 06:13:34;;;;;;;1999.90;999.90;;;;;;;;;;5006340;28;20765;-73
2022/11/15 06:16:19;;;;;;;1999.90;999.90;;;;;;;;;;5012199;28;20717;-75
2022/11/15 06:19:03;;;;;;;1999.90;999.90;;;;;;;;;;5012454;28;20214;-74
2022/11/15 06:21:48;;;;;;;1999.90;999.90;;;;;;;;;;5005391;28;20290;-70
2022/11/15 06:24:34;;;;;;;1999.90;999.90;;;;;;;;;;5010803;28;20579;-74
2022/11/15 06:27:19;;;;;;;1999.90;999.90;;;;;;;;;;5009896;28;20206;-73
2022/11/15 06:30:06;;;;;;;1999.90;999.90;;;;;;;;;;5029500;28;20225;-72
2022/11/15 06:32:51;;;;;;;1999.90;999.90;;;;;;;;;;5030251;28;20203;-73
2022/11/15 06:35:36;;;;;;;1999.90;999.90;;;;;;;;;;5029827;28;20207;-75
2022/11/15 06:38:21;;;;;;;1999.90;999.90;;;;;;;;;;5018672;28;20225;-74
2022/11/15 06:41:07;;;;;;;1999.90;999.90;;;;;;;;;;5011178;28;20230;-74
2022/11/15 06:43:52;;;;;;;1999.90;999.90;;;;;;;;;;5009837;28;20704;-75
2022/11/15 06:46:38;;;;;;;1999.90;999.90;;;;;;;;;;5011149;28;20616;-73
2022/11/15 06:49:23;;;;;;;1999.90;999.90;;;;;;;;;;5011509;28;20202;-74
2022/11/15 06:52:08;;;;;;;1999.90;999.90;;;;;;;;;;5009398;28;20460;-74
2022/11/15 06:54:53;;;;;;;1999.90;999.90;;;;;;;;;;5011206;28;20719;-74
2022/11/15 06:57:38;;;;;;;1999.90;999.90;;;;;;;;;;5011598;28;20310;-74
2022/11/15 07:00:23;;;;;;;1999.90;999.90;;;;;;;;;;5012376;28;20301;-72
2022/11/15 07:03:09;;;;;;;1999.90;999.90;;;;;;;;;;5018496;28;20250;-75
2022/11/15 07:05:54;;;;;;;1999.90;999.90;;;;;;;;;;5011696;28;20238;-74
2022/11/15 07:08:41;;;;;;;1999.90;999.90;;;;;;;;;;5001183;28;20239;-74
2022/11/15 07:11:26;;;;;;;1999.90;999.90;;;;;;;;;;5002721;28;20377;-74
2022/11/15 07:14:11;;;;;;;1999.90;999.90;;;;;;;;;;5002866;28;20262;-74
2022/11/15 07:16:56;;;;;;;1999.90;999.90;;;;;;;;;;5009620;28;20210;-74
2022/11/15 07:19:42;;;;;;;1999.90;999.90;;;;;;;;;;5005844;28;20346;-74
2022/11/15 07:22:27;;;;;;;1999.90;999.90;;;;;;;;;;5005438;28;20246;-74
2022/11/15 07:25:12;;;;;;;1999.90;999.90;;;;;;;;;;5009790;28;20696;-75
2022/11/15 07:27:57;;;;;;;1999.90;999.90;;;;;;;;;;5001412;28;20211;-74
2022/11/15 07:30:42;;;;;;;1999.90;999.90;;;;;;;;;;5013041;28;20340;-72
2022/11/15 07:33:28;;;;;;;1999.90;999.90;;;;;;;;;;5013714;28;20215;-73
2022/11/15 07:36:14;;;;;;;1999.90;999.90;;;;;;;;;;5014054;28;20206;-70
2022/11/15 07:38:59;;;;;;;1999.90;999.90;;;;;;;;;;5032031;28;20704;-75
2022/11/15 07:41:44;;;;;;;1999.90;999.90;;;;;;;;;;5018972;28;20235;-73
2022/11/15 07:44:29;;;;;;;1999.90;999.90;;;;;;;;;;5013761;28;20326;-74
2022/11/15 07:47:14;;;;;;;1999.90;999.90;;;;;;;;;;5003631;28;20731;-74
2022/11/15 07:49:59;;;;;;;1999.90;999.90;;;;;;;;;;5005405;28;20601;-73
2022/11/15 07:52:45;;;;;;;1999.90;999.90;;;;;;;;;;5009405;28;20726;-75
2022/11/15 07:55:30;;;;;;;1999.90;999.90;;;;;;;;;;5005849;28;20567;-74
2022/11/15 07:58:14;;;;;;;1999.90;999.90;;;;;;;;;;4997421;28;20209;-73
2022/11/15 08:01:02;;;;;;;1999.90;999.90;;;;;;;;;;5012628;28;20233;-70
2022/11/15 08:03:48;;;;;;;1999.90;999.90;;;;;;;;;;5006724;28;20571;-72
2022/11/15 08:06:32;;;;;;;1999.90;999.90;;;;;;;;;;5008201;28;20220;-74
2022/11/15 08:09:19;;;;;;;1999.90;999.90;;;;;;;;;;5013707;28;20568;-74
2022/11/15 08:22:32;;;;;;;1999.90;999.90;;;;;;;;;;5129941;27;20542;-74
2022/11/15 08:25:17;;;;;;;1999.90;999.90;;;;;;;;;;5129314;28;20705;-74
2022/11/15 08:28:04;;;;;;;1999.90;999.90;;;;;;;;;;5118707;28;20209;-72
2022/11/15 08:30:49;;;;;;;1999.90;999.90;;;;;;;;;;5128852;28;20863;-72
2022/11/15 08:33:33;;;;;;;1999.90;999.90;;;;;;;;;;5109562;28;20208;-72
2022/11/15 08:36:18;;;;;;;1999.90;999.90;;;;;;;;;;5116115;28;20212;-72
2022/11/15 08:39:05;;;;;;;1999.90;999.90;;;;;;;;;;5126265;28;20254;-73
2022/11/15 08:41:50;;;;;;;1999.90;999.90;;;;;;;;;;5122157;28;20204;-71
2022/11/15 08:44:35;;;;;;;1999.90;999.90;;;;;;;;;;5120276;28;20205;-72
2022/11/15 08:47:20;;;;;;;1999.90;999.90;;;;;;;;;;5109398;28;20229;-72
2022/11/15 08:50:05;;;;;;;1999.90;999.90;;;;;;;;;;5115973;27;20236;-75
2022/11/15 08:52:50;;;;;;;1999.90;999.90;;;;;;;;;;5127351;28;20211;-73
2022/11/15 08:55:38;;;;;;;1999.90;999.90;;;;;;;;;;5123467;28;20221;-73
2022/11/15 08:58:23;;;;;;;1999.90;999.90;;;;;;;;;;5115677;28;20208;-77
2022/11/15 09:01:15;;;;;;;1999.90;999.90;;;;;;;;;;5125896;28;20219;-72
2022/11/15 09:03:59;;;;;;;1999.90;999.90;;;;;;;;;;5125158;28;20318;-73
2022/11/15 09:06:44;;;;;;;1999.90;999.90;;;;;;;;;;5127180;27;20207;-72
2022/11/15 09:09:29;;;;;;;1999.90;999.90;;;;;;;;;;5123442;28;20205;-74
2022/11/15 09:12:15;;;;;;;1999.90;999.90;;;;;;;;;;5125277;28;20313;-74
2022/11/15 09:15:00;;;;;;;1999.90;999.90;;;;;;;;;;5120800;28;20211;-74
2022/11/15 09:17:45;;;;;;;1999.90;999.90;;;;;;;;;;5127190;28;20200;-73
2022/11/15 09:20:29;;;;;;;1999.90;999.90;;;;;;;;;;5123251;28;20241;-73
2022/11/15 09:23:14;;;;;;;1999.90;999.90;;;;;;;;;;5108164;28;20267;-74
2022/11/15 09:26:00;;;;;;;1999.90;999.90;;;;;;;;;;5111400;28;20612;-73
2022/11/15 09:28:46;;;;;;;1999.90;999.90;;;;;;;;;;5110151;28;20688;-73
2022/11/15 09:31:31;;;;;;;1999.90;999.90;;;;;;;;;;5109180;28;20248;-74
2022/11/15 09:34:16;;;;;;;1999.90;999.90;;;;;;;;;;5111845;28;20292;-72
2022/11/15 09:37:01;;;;;;;1999.90;999.90;;;;;;;;;;5110989;28;20207;-74
2022/11/15 09:39:46;;;;;;;1999.90;999.90;;;;;;;;;;5111002;28;20352;-71
2022/11/15 09:42:49;;;;;;;1999.90;999.90;;;;;;;;;;5108686;28;20210;-72
2022/11/15 09:45:41;;;;;;;1999.90;999.90;;;;;;;;;;5108563;28;20546;-71
2022/11/15 09:48:39;;;;;;;1999.90;999.90;;;;;;;;;;5110065;28;20260;-71
2022/11/15 09:51:29;;;;;;;1999.90;999.90;;;;;;;;;;5099125;28;20224;-72
2022/11/15 09:54:19;;;;;;;1999.90;999.90;;;;;;;;;;5105211;28;20221;-71
2022/11/15 09:57:05;;;;;;;1999.90;999.90;;;;;;;;;;5113657;28;20682;-73
2022/11/15 09:59:55;;;;;;;1999.90;999.90;;;;;;;;;;5105999;28;20602;-72
2022/11/15 10:02:51;;;;;;;1999.90;999.90;;;;;;;;;;5105079;28;20202;-72
2022/11/15 10:05:38;;;;;;;1999.90;999.90;;;;;;;;;;5104561;28;20259;-72
2022/11/15 10:08:29;;;;;;;1999.90;999.90;;;;;;;;;;5100727;28;20217;-72
2022/11/15 10:11:17;;;;;;;1999.90;999.90;;;;;;;;;;5113665;28;20737;-71
2022/11/15 10:14:02;;;;;;;1999.90;999.90;;;;;;;;;;5101295;28;20218;-72
2022/11/15 10:17:10;;;;;;;1999.90;999.90;;;;;;;;;;5103539;28;20221;-73
2022/11/15 10:20:03;;;;;;;1999.90;999.90;;;;;;;;;;5103085;28;20435;-72
2022/11/15 10:22:49;;;;;;;1999.90;999.90;;;;;;;;;;5100649;28;20209;-72
2022/11/15 10:25:34;;;;;;;1999.90;999.90;;;;;;;;;;5107533;28;20201;-72
2022/11/15 10:28:22;;;;;;;1999.90;999.90;;;;;;;;;;5114536;28;20198;-74
2022/11/15 10:31:21;;;;;;;1999.90;999.90;;;;;;;;;;5113658;28;20232;-72
2022/11/15 10:34:13;;;;;;;1999.90;999.90;;;;;;;;;;5113019;28;20206;-72
2022/11/15 10:37:01;;;;;;;1999.90;999.90;;;;;;;;;;5114068;28;20302;-71
2022/11/15 10:40:02;;;;;;;1999.90;999.90;;;;;;;;;;5114028;28;20276;-72
2022/11/15 10:42:48;;;;;;;1999.90;999.90;;;;;;;;;;5113968;28;20309;-72
2022/11/15 10:45:34;;;;;;;1999.90;999.90;;;;;;;;;;5112198;28;20524;-72
2022/11/15 10:48:24;;;;;;;1999.90;999.90;;;;;;;;;;5113879;28;20658;-72
2022/11/15 10:51:20;;;;;;;1999.90;999.90;;;;;;;;;;5113377;28;20726;-72
2022/11/15 10:54:09;;;;;;;1999.90;999.90;;;;;;;;;;5113656;28;20559;-72
2022/11/15 10:56:56;;;;;;;1999.90;999.90;;;;;;;;;;5113706;28;20218;-71
2022/11/15 10:59:43;;;;;;;1999.90;999.90;;;;;;;;;;5113514;28;20244;-71
2022/11/15 11:02:30;;;;;;;1999.90;999.90;;;;;;;;;;5113498;28;20310;-72
2022/11/15 11:05:26;;;;;;;1999.90;999.90;;;;;;;;;;5113157;28;20227;-73
2022/11/15 11:08:22;;;;;;;1999.90;999.90;;;;;;;;;;5113430;28;20200;-73
2022/11/15 11:11:08;;;;;;;1999.90;999.90;;;;;;;;;;5113307;28;20277;-72
2022/11/15 11:13:53;;;;;;;1999.90;999.90;;;;;;;;;;5112960;28;20213;-72
2022/11/15 11:16:42;;;;;;;1999.90;999.90;;;;;;;;;;5113246;28;20287;-72
2022/11/15 11:19:40;;;;;;;1999.90;999.90;;;;;;;;;;5113377;28;20554;-72
2022/11/15 11:22:27;;;;;;;1999.90;999.90;;;;;;;;;;5113463;28;20227;-72
2022/11/15 11:25:19;;;;;;;1999.90;999.90;;;;;;;;;;5112851;28;20285;-73
2022/11/15 11:28:15;;;;;;;1999.90;999.90;;;;;;;;;;5113092;28;20335;-71
2022/11/15 11:31:11;;;;;;;1999.90;999.90;;;;;;;;;;5112865;28;20235;-72
2022/11/15 11:34:00;;;;;;;1999.90;999.90;;;;;;;;;;5112918;28;20700;-72
2022/11/15 11:36:50;;;;;;;1999.90;999.90;;;;;;;;;;5112662;28;20404;-71
2022/11/15 11:39:41;;;;;;;1999.90;999.90;;;;;;;;;;5112804;28;20426;-72
2022/11/15 11:42:30;;;;;;;1999.90;999.90;;;;;;;;;;5112835;28;20295;-72
2022/11/15 11:45:20;;;;;;;1999.90;999.90;;;;;;;;;;5112689;28;20209;-72
2022/11/15 11:48:12;;;;;;;1999.90;999.90;;;;;;;;;;5112728;28;20203;-72
2022/11/15 11:51:03;;;;;;;1999.90;999.90;;;;;;;;;;5112559;28;20235;-72
2022/11/15 11:53:53;;;;;;;1999.90;999.90;;;;;;;;;;5112703;28;20226;-72
2022/11/15 11:56:39;;;;;;;1999.90;999.90;;;;;;;;;;5112414;28;20270;-73
2022/11/15 11:59:29;;;;;;;1999.90;999.90;;;;;;;;;;5111213;28;20394;-72
2022/11/15 12:02:19;;;;;;;1999.90;999.90;;;;;;;;;;5112585;28;20207;-72
2022/11/15 12:05:14;;;;;;;1999.90;999.90;;;;;;;;;;5112331;28;20700;-72
2022/11/15 12:08:02;;;;;;;1999.90;999.90;;;;;;;;;;5112498;28;20279;-72
2022/11/15 12:10:49;;;;;;;1999.90;999.90;;;;;;;;;;5112291;28;20576;-72
2022/11/15 12:13:36;;;;;;;1999.90;999.90;;;;;;;;;;5112516;28;20283;-72
2022/11/15 12:16:23;;;;;;;1999.90;999.90;;;;;;;;;;5111894;28;20327;-72
2022/11/15 12:19:09;;;;;;;1999.90;999.90;;;;;;;;;;5112476;28;20259;-70
2022/11/15 12:21:57;;;;;;;1999.90;999.90;;;;;;;;;;5112450;28;20953;-72
2022/11/15 12:24:43;;;;;;;1999.90;999.90;;;;;;;;;;5112093;28;20219;-72
2022/11/15 12:27:32;;;;;;;1999.90;999.90;;;;;;;;;;5112306;28;20330;-72
2022/11/15 12:30:19;;;;;;;1999.90;999.90;;;;;;;;;;5112248;28;20221;-73
2022/11/15 12:33:04;;;;;;;1999.90;999.90;;;;;;;;;;5111886;28;20232;-71
2022/11/15 12:35:58;;;;;;;1999.90;999.90;;;;;;;;;;5111993;28;20325;-72
2022/11/15 12:38:54;;;;;;;1999.90;999.90;;;;;;;;;;5112263;28;20202;-72
2022/11/15 12:41:40;;;;;;;1999.90;999.90;;;;;;;;;;5112201;28;20338;-73
2022/11/15 12:44:39;;;;;;;1999.90;999.90;;;;;;;;;;5111593;28;20745;-72
2022/11/15 12:47:25;;;;;;;1999.90;999.90;;;;;;;;;;5111800;28;20200;-72
2022/11/15 12:50:13;;;;;;;1999.90;999.90;;;;;;;;;;5112042;28;20279;-72
2022/11/15 12:53:17;;;;;;;1999.90;999.90;;;;;;;;;;5111752;28;20232;-72
2022/11/15 12:56:23;;;;;;;1999.90;999.90;;;;;;;;;;5111790;28;20208;-72
2022/11/15 12:59:08;;;;;;;1999.90;999.90;;;;;;;;;;5115871;28;20250;-71
2022/11/15 13:01:58;;;;;;;1999.90;999.90;;;;;;;;;;5115880;28;20700;-72
2022/11/15 13:04:43;;;;;;;1999.90;999.90;;;;;;;;;;5115345;28;20754;-71
2022/11/15 13:07:56;;;;;;;1999.90;999.90;;;;;;;;;;5115931;28;20572;-72
2022/11/15 13:10:41;;;;;;;1999.90;999.90;;;;;;;;;;5115630;28;20332;-72
2022/11/15 13:13:41;;;;;;;1999.90;999.90;;;;;;;;;;5115367;28;20255;-72
2022/11/15 13:16:27;;;;;;;1999.90;999.90;;;;;;;;;;5113647;28;25079;-72
2022/11/15 13:19:12;;;;;;;1999.90;999.90;;;;;;;;;;5115291;28;20205;-72
2022/11/15 13:25:01;;;;;;;1999.90;999.90;;;;;;;;;;5115023;28;20243;-73
2022/11/15 13:27:48;;;;;;;1999.90;999.90;;;;;;;;;;5115098;28;20206;-72
2022/11/15 13:30:33;;;;;;;1999.90;999.90;;;;;;;;;;5115181;28;20245;-72
2022/11/15 13:33:20;;;;;;;1999.90;999.90;;;;;;;;;;5115411;28;20221;-72
2022/11/15 13:36:07;;;;;;;1999.90;999.90;;;;;;;;;;5114641;28;20209;-72
2022/11/15 13:38:55;;;;;;;1999.90;999.90;;;;;;;;;;5115204;28;20287;-71
2022/11/15 13:41:46;;;;;;;1999.90;999.90;;;;;;;;;;5115158;28;20198;-72
2022/11/15 13:44:32;;;;;;;1999.90;999.90;;;;;;;;;;5114693;28;20222;-73
2022/11/15 13:47:20;;;;;;;1999.90;999.90;;;;;;;;;;5115017;28;20563;-72
2022/11/15 13:50:07;;;;;;;1999.90;999.90;;;;;;;;;;5114847;28;20829;-72
2022/11/15 13:52:53;;;;;;;1999.90;999.90;;;;;;;;;;5114689;28;20216;-72
2022/11/15 13:55:38;;;;;;;1999.90;999.90;;;;;;;;;;5114500;28;20203;-72
2022/11/15 13:58:23;;;;;;;1999.90;999.90;;;;;;;;;;5114821;28;20305;-72
2022/11/15 14:01:07;;;;;;;1999.90;999.90;;;;;;;;;;5114655;28;20219;-72
2022/11/15 14:03:55;;;;;;;1999.90;999.90;;;;;;;;;;5114675;28;20283;-71
2022/11/15 14:06:46;;;;;;;1999.90;999.90;;;;;;;;;;5114684;28;20225;-72
2022/11/15 14:09:33;;;;;;;1999.90;999.90;;;;;;;;;;5114263;28;20408;-72
2022/11/15 14:12:26;;;;;;;1999.90;999.90;;;;;;;;;;5114356;28;20471;-72
2022/11/15 14:15:24;;;;;;;1999.90;999.90;;;;;;;;;;5114134;28;20276;-72
2022/11/15 14:18:24;;;;;;;1999.90;999.90;;;;;;;;;;5114304;28;20745;-72
2022/11/15 14:21:09;;;;;;;1999.90;999.90;;;;;;;;;;5114190;28;20219;-72
2022/11/15 14:24:09;;;;;;;1999.90;999.90;;;;;;;;;;5114312;28;20212;-72
2022/11/15 14:26:56;;;;;;;1999.90;999.90;;;;;;;;;;5114284;28;20324;-72
2022/11/15 14:29:41;;;;;;;1999.90;999.90;;;;;;;;;;5114040;28;20226;-71
2022/11/15 14:32:26;;;;;;;1999.90;999.90;;;;;;;;;;5113919;28;20213;-73
2022/11/15 14:35:14;;;;;;;1999.90;999.90;;;;;;;;;;5113800;28;20205;-73
2022/11/15 14:37:59;;;;;;;1999.90;999.90;;;;;;;;;;5114322;28;20200;-70
2022/11/15 14:40:44;;;;;;;1999.90;999.90;;;;;;;;;;5113856;28;20309;-71
2022/11/15 14:43:30;;;;;;;1999.90;999.90;;;;;;;;;;5113834;28;20209;-72
2022/11/15 14:46:15;;;;;;;1999.90;999.90;;;;;;;;;;5113572;28;20208;-72
2022/11/15 14:49:00;;;;;;;1999.90;999.90;;;;;;;;;;5113584;28;20339;-71
2022/11/15 14:51:45;;;;;;;1999.90;999.90;;;;;;;;;;5113593;28;20312;-72
2022/11/15 14:54:29;;;;;;;1999.90;999.90;;;;;;;;;;5113394;28;20231;-72
2022/11/15 14:57:14;;;;;;;1999.90;999.90;;;;;;;;;;5113550;28;20599;-72
2022/11/15 15:00:00;;;;;;;1999.90;999.90;;;;;;;;;;5113375;28;20221;-72
2022/11/15 15:02:46;;;;;;;1999.90;999.90;;;;;;;;;;5113501;28;20567;-72
2022/11/15 15:05:32;;;;;;;1999.90;999.90;;;;;;;;;;5113266;28;20576;-72
2022/11/15 15:08:17;;;;;;;1999.90;999.90;;;;;;;;;;5113318;28;20213;-72
2022/11/15 15:11:02;;;;;;;1999.90;999.90;;;;;;;;;;5113325;28;20220;-72
2022/11/15 15:13:47;;;;;;;1999.90;999.90;;;;;;;;;;5112944;28;20229;-72
2022/11/15 15:16:33;;;;;;;1999.90;999.90;;;;;;;;;;5112964;28;20205;-72
2022/11/15 15:19:18;;;;;;;1999.90;999.90;;;;;;;;;;5112864;28;20205;-73
2022/11/15 15:22:03;;;;;;;1999.90;999.90;;;;;;;;;;5113038;28;20291;-72
2022/11/15 15:24:48;;;;;;;1999.90;999.90;;;;;;;;;;5112565;28;20216;-72
2022/11/15 15:27:32;;;;;;;1999.90;999.90;;;;;;;;;;5113066;28;20209;-72
2022/11/15 15:30:18;;;;;;;1999.90;999.90;;;;;;;;;;5113004;28;20255;-72
2022/11/15 15:33:04;;;;;;;1999.90;999.90;;;;;;;;;;5112689;28;20228;-72
2022/11/15 15:35:49;;;;;;;1999.90;999.90;;;;;;;;;;5112596;28;20203;-72
2022/11/15 15:38:34;;;;;;;1999.90;999.90;;;;;;;;;;5112891;28;20203;-72
2022/11/15 15:41:19;;;;;;;1999.90;999.90;;;;;;;;;;5112749;28;20220;-72
2022/11/15 15:44:04;;;;;;;1999.90;999.90;;;;;;;;;;5112515;28;20751;-72
2022/11/15 15:46:49;;;;;;;1999.90;999.90;;;;;;;;;;5112274;28;20383;-72
2022/11/15 15:49:35;;;;;;;1999.90;999.90;;;;;;;;;;5112652;28;20533;-72
2022/11/15 15:52:20;;;;;;;1999.90;999.90;;;;;;;;;;5112536;28;20316;-72
2022/11/15 15:55:05;;;;;;;1999.90;999.90;;;;;;;;;;5112136;28;20196;-72
2022/11/15 15:57:50;;;;;;;1999.90;999.90;;;;;;;;;;5112516;28;20200;-72
2022/11/15 16:00:35;;;;;;;1999.90;999.90;;;;;;;;;;5112506;28;20247;-72
2022/11/15 16:03:20;;;;;;;1999.90;999.90;;;;;;;;;;5112599;28;20723;-72
2022/11/15 16:06:21;;;;;;;1999.90;999.90;;;;;;;;;;5111995;28;20195;-73
2022/11/15 16:09:11;;;;;;;1999.90;999.90;;;;;;;;;;5112496;28;20195;-71
2022/11/15 16:11:56;;;;;;;1999.90;999.90;;;;;;;;;;5112329;28;20195;-72
2022/11/15 16:14:41;;;;;;;1999.90;999.90;;;;;;;;;;5112193;28;20781;-72
2022/11/15 16:17:27;;;;;;;1999.90;999.90;;;;;;;;;;5112420;28;20564;-72
2022/11/15 16:20:21;;;;;;;1999.90;999.90;;;;;;;;;;5112334;28;20353;-72
2022/11/15 16:23:07;;;;;;;1999.90;999.90;;;;;;;;;;5112862;28;20558;-72
2022/11/15 16:25:55;;;;;;;1999.90;999.90;;;;;;;;;;5112215;28;20218;-72
2022/11/15 16:28:40;;;;;;;1999.90;999.90;;;;;;;;;;5112329;28;20273;-72
2022/11/15 16:31:25;;;;;;;1999.90;999.90;;;;;;;;;;5112841;28;20219;-71
2022/11/15 16:34:10;;;;;;;1999.90;999.90;;;;;;;;;;5116741;28;20231;-72
2022/11/15 16:36:55;;;;;;;1999.90;999.90;;;;;;;;;;5116385;28;20212;-71
2022/11/15 16:39:39;;;;;;;1999.90;999.90;;;;;;;;;;5116052;28;20222;-71
2022/11/15 16:42:25;;;;;;;1999.90;999.90;;;;;;;;;;5116235;28;20341;-71
2022/11/15 16:45:12;;;;;;;1999.90;999.90;;;;;;;;;;5114716;28;20493;-72
2022/11/15 16:47:56;;;;;;;1999.90;999.90;;;;;;;;;;5116152;28;20247;-72
2022/11/15 16:50:41;;;;;;;1999.90;999.90;;;;;;;;;;5116038;28;20605;-72
2022/11/15 16:53:27;;;;;;;1999.90;999.90;;;;;;;;;;5115764;28;20307;-72
2022/11/15 16:56:19;;;;;;;1999.90;999.90;;;;;;;;;;5117516;28;20208;-72
2022/11/15 16:59:06;;;;;;;1999.90;999.90;;;;;;;;;;5119544;28;20308;-72
2022/11/15 17:01:50;;;;;;;1999.90;999.90;;;;;;;;;;5117837;28;20269;-71
2022/11/15 17:04:35;;;;;;;1999.90;999.90;;;;;;;;;;5115179;28;20426;-71
2022/11/15 17:07:20;;;;;;;1999.90;999.90;;;;;;;;;;5116152;28;20412;-70
2022/11/15 17:10:06;;;;;;;1999.90;999.90;;;;;;;;;;5115508;28;20295;-71
2022/11/15 17:12:51;;;;;;;1999.90;999.90;;;;;;;;;;5115467;28;20305;-71
2022/11/15 17:15:37;;;;;;;1999.90;999.90;;;;;;;;;;5115191;28;20217;-71
2022/11/15 17:18:22;;;;;;;1999.90;999.90;;;;;;;;;;5115484;28;20207;-71
2022/11/15 17:21:08;;;;;;;1999.90;999.90;;;;;;;;;;5115277;28;20228;-70
2022/11/15 17:23:53;;;;;;;1999.90;999.90;;;;;;;;;;5115378;28;20590;-71
2022/11/15 17:26:38;;;;;;;1999.90;999.90;;;;;;;;;;5115527;28;20410;-72
2022/11/15 17:29:23;;;;;;;1999.90;999.90;;;;;;;;;;5115426;28;20204;-70
2022/11/15 17:32:09;;;;;;;1999.90;999.90;;;;;;;;;;5115187;28;20207;-72
2022/11/15 17:34:54;;;;;;;1999.90;999.90;;;;;;;;;;5115050;28;20687;-73
2022/11/15 17:37:38;;;;;;;1999.90;999.90;;;;;;;;;;5115177;28;20292;-72
2022/11/15 17:40:23;;;;;;;1999.90;999.90;;;;;;;;;;5114993;28;20242;-71
2022/11/15 17:43:08;;;;;;;1999.90;999.90;;;;;;;;;;5114656;28;20675;-70
2022/11/15 17:45:52;;;;;;;1999.90;999.90;;;;;;;;;;5114952;28;20238;-70
2022/11/15 17:48:39;;;;;;;1999.90;999.90;;;;;;;;;;5114915;28;20241;-72
2022/11/15 17:51:23;;;;;;;1999.90;999.90;;;;;;;;;;5114885;28;20342;-71
2022/11/15 17:54:10;;;;;;;1999.90;999.90;;;;;;;;;;5114467;28;20232;-71
2022/11/15 17:56:55;;;;;;;1999.90;999.90;;;;;;;;;;5114771;28;20678;-70
2022/11/15 17:59:39;;;;;;;1999.90;999.90;;;;;;;;;;5114821;28;20224;-71
2022/11/15 18:02:24;;;;;;;1999.90;999.90;;;;;;;;;;5113797;28;20424;-73
2022/11/15 18:05:10;;;;;;;1999.90;999.90;;;;;;;;;;5114143;28;20276;-72
2022/11/15 18:07:55;;;;;;;1999.90;999.90;;;;;;;;;;5114470;28;20213;-73
2022/11/15 18:10:40;;;;;;;1999.90;999.90;;;;;;;;;;5114508;28;20588;-73
2022/11/15 18:13:25;;;;;;;1999.90;999.90;;;;;;;;;;5114382;28;20290;-72
2022/11/15 18:16:11;;;;;;;1999.90;999.90;;;;;;;;;;5114418;28;20303;-73
2022/11/15 18:18:57;;;;;;;1999.90;999.90;;;;;;;;;;5114639;28;20204;-73
2022/11/15 18:21:55;;;;;;;1999.90;999.90;;;;;;;;;;5113973;28;20920;-70
2022/11/15 18:24:41;;;;;;;1999.90;999.90;;;;;;;;;;5113965;28;20325;-70
2022/11/15 18:27:26;;;;;;;1999.90;999.90;;;;;;;;;;5114312;28;20275;-72
2022/11/15 18:30:11;;;;;;;1999.90;999.90;;;;;;;;;;5114166;28;20221;-73
2022/11/15 18:32:56;;;;;;;1999.90;999.90;;;;;;;;;;5114244;28;20228;-73
2022/11/15 18:35:41;;;;;;;1999.90;999.90;;;;;;;;;;5113935;28;20324;-71
2022/11/15 18:38:29;;;;;;;1999.90;999.90;;;;;;;;;;5113983;28;20329;-71
2022/11/15 18:41:16;;;;;;;1999.90;999.90;;;;;;;;;;5113924;28;20704;-71
2022/11/15 18:44:02;;;;;;;1999.90;999.90;;;;;;;;;;5113915;28;20328;-71
2022/11/15 18:46:47;;;;;;;1999.90;999.90;;;;;;;;;;5113870;28;20254;-72
2022/11/15 18:49:31;;;;;;;1999.90;999.90;;;;;;;;;;5113772;28;20289;-71
2022/11/15 18:52:16;;;;;;;1999.90;999.90;;;;;;;;;;5113750;28;20218;-71
2022/11/15 18:55:03;;;;;;;1999.90;999.90;;;;;;;;;;5112551;28;20567;-70
2022/11/15 18:57:47;;;;;;;1999.90;999.90;;;;;;;;;;5113842;28;20293;-71
2022/11/15 19:00:32;;;;;;;1999.90;999.90;;;;;;;;;;5113565;28;20721;-71
2022/11/15 19:03:17;;;;;;;1999.90;999.90;;;;;;;;;;5113543;28;20727;-71